METAR Data
IDs: Format: Raw Decoded Include TAF

Data at: 0126 UTC 20 Jul 2019

METAR for:KFPK (Charotte/Beach Fld, MI, US)
Text:KFPK 200117Z AUTO 00000KT 10SM BKN041 BKN048 BKN055 29/26 A2986 RMK AO2 T02880264
Temperature: 28.8°C ( 84°F)
Dewpoint: 26.4°C ( 80°F) [RH = 87%]
Pressure (altimeter):29.86 inches Hg (1011.3 mb)
Winds:calm
Visibility:10 or more sm (16+ km)
Ceiling:4100 feet AGL
Clouds: broken clouds at 4100 feet AGL, broken clouds at 4800 feet AGL, broken clouds at 5500 feet AGL
QC Flag:automated observation with no human augmentation

TAF for:KFPK (Charotte/Beach Fld, MI, US)
Text:No data found

METAR for:KLAN (Lansing/Capital City, MI, US)
Text:KLAN 200053Z 13007KT 10SM OVC050 28/25 A2985 RMK AO2 LTG DSNT SE AND S SLP101 T02830250
Temperature: 28.3°C ( 83°F)
Dewpoint: 25.0°C ( 77°F) [RH = 82%]
Pressure (altimeter):29.85 inches Hg (1010.9 mb) [Sea level pressure: 1010.1 mb]
Winds:from the SE (130 degrees) at 8 MPH (7 knots; 3.6 m/s)
Visibility:10 or more sm (16+ km)
Ceiling:5000 feet AGL
Clouds: overcast cloud deck at 5000 feet AGL

TAF for:KLAN (Lansing/Capital City, MI, US) issued at 2340 UTC 19 Jul 2019
Text:KLAN 192340Z 2000/2024 28010KT P6SM VCTS BKN035CB
Forecast period:0000 to 0100 UTC 20 July 2019
Forecast type:FROM: standard forecast or significant change
Winds:from the W (280 degrees) at 12 MPH (10 knots; 5.1 m/s)
Visibility:6 or more sm (10+ km)
Ceiling:3500 feet AGL
Clouds: broken clouds at 3500 feet AGL
Weather:VCTS (thunderstorm in vicinity)
Text:FM200100 25012KT P6SM SCT070
Forecast period:0100 to 1100 UTC 20 July 2019
Forecast type:FROM: standard forecast or significant change
Winds:from the WSW (250 degrees) at 14 MPH (12 knots; 6.2 m/s)
Visibility:6 or more sm (10+ km)
Ceiling:at least 12,000 feet AGL
Clouds: scattered clouds at 7000 feet AGL
Text:FM201100 23011KT P6SM SCT080
Forecast period:1100 to 1700 UTC 20 July 2019
Forecast type:FROM: standard forecast or significant change
Winds:from the SW (230 degrees) at 13 MPH (11 knots; 5.7 m/s)
Visibility:6 or more sm (10+ km)
Ceiling:at least 12,000 feet AGL
Clouds: scattered clouds at 8000 feet AGL
Text:FM201700 23012G20KT P6SM FEW080
Forecast period:1700 UTC 20 July 2019 to 0000 UTC 21 July 2019
Forecast type:FROM: standard forecast or significant change
Winds:from the SW (230 degrees) at 14 MPH (12 knots; 6.2 m/s) gusting to 23 MPH (20 knots; 10.3 m/s)
Visibility:6 or more sm (10+ km)
Ceiling:at least 12,000 feet AGL
Clouds: few clouds at 8000 feet AGL